createdAt,value
2022-10-06T00:01:04.635Z,81.02
2022-10-06T00:03:31.793Z,80.97
2022-10-06T00:06:03.549Z,81.55
2022-10-06T00:08:32.145Z,81.31
2022-10-06T00:10:59.111Z,81.26
2022-10-06T00:13:27.254Z,81.37
2022-10-06T00:15:54.579Z,81.28
2022-10-06T00:18:21.796Z,81.32
2022-10-06T00:21:01.718Z,81.04
2022-10-06T00:23:29.480Z,81.50
2022-10-06T00:25:56.781Z,81.34
2022-10-06T00:28:23.941Z,81.15
2022-10-06T00:30:53.698Z,81.14
2022-10-06T00:33:21.135Z,81.36
2022-10-06T00:35:56.590Z,81.60
2022-10-06T00:38:23.955Z,81.37
2022-10-06T00:40:51.641Z,81.26
2022-10-06T00:43:44.804Z,81.05
2022-10-06T00:46:22.552Z,81.45
2022-10-06T00:49:17.881Z,81.48
2022-10-06T00:51:48.790Z,81.49
2022-10-06T00:54:16.812Z,81.13
2022-10-06T00:56:44.610Z,81.48
2022-10-06T00:59:14.069Z,81.21
2022-10-06T01:02:03.654Z,81.63
2022-10-06T01:04:36.210Z,81.47
2022-10-06T01:07:03.952Z,81.31
2022-10-06T01:09:31.880Z,81.73
2022-10-06T01:12:02.245Z,81.19
2022-10-06T01:14:29.691Z,81.50
2022-10-06T01:17:09.938Z,81.28
2022-10-06T01:19:49.931Z,81.23
2022-10-06T01:22:24.190Z,81.59
2022-10-06T01:24:52.731Z,81.75
2022-10-06T01:27:21.458Z,81.40
2022-10-06T01:29:52.751Z,81.68
2022-10-06T01:32:20.995Z,81.59
2022-10-06T01:34:48.216Z,81.50
2022-10-06T01:37:16.011Z,81.55
2022-10-06T01:39:43.862Z,81.82
2022-10-06T01:42:11.472Z,81.95
2022-10-06T01:44:38.512Z,81.57
2022-10-06T01:47:06.796Z,82.13
2022-10-06T01:49:34.110Z,81.57
2022-10-06T01:52:02.029Z,81.93
2022-10-06T01:54:29.151Z,81.78
2022-10-06T01:56:56.278Z,81.75
2022-10-06T01:59:24.670Z,81.74
2022-10-06T02:01:52.661Z,81.77
2022-10-06T02:04:20.913Z,81.73
2022-10-06T02:06:47.932Z,81.84
2022-10-06T02:09:14.893Z,82.25
2022-10-06T02:11:43.710Z,82.11
2022-10-06T02:14:10.959Z,81.87
2022-10-06T02:16:38.316Z,81.67
2022-10-06T02:19:06.549Z,82.00
2022-10-06T02:21:33.651Z,82.22
2022-10-06T02:24:00.755Z,82.25
2022-10-06T02:26:28.579Z,82.10
2022-10-06T02:28:55.793Z,82.15
2022-10-06T02:31:24.464Z,82.21
2022-10-06T02:33:52.093Z,81.87
2022-10-06T02:36:19.604Z,81.89
2022-10-06T02:38:46.658Z,82.01
2022-10-06T02:41:13.778Z,82.04
2022-10-06T02:43:40.770Z,82.21
2022-10-06T02:46:12.136Z,81.87
2022-10-06T02:48:44.162Z,82.18
2022-10-06T02:51:17.989Z,82.05
2022-10-06T02:53:48.203Z,82.13
2022-10-06T02:56:20.250Z,81.90
2022-10-06T02:58:48.057Z,82.09
2022-10-06T03:01:24.216Z,81.98
2022-10-06T03:03:53.096Z,82.04
2022-10-06T03:06:24.255Z,81.95
2022-10-06T03:09:01.083Z,81.97
2022-10-06T03:11:38.181Z,81.82
2022-10-06T03:14:07.048Z,81.92
2022-10-06T03:16:38.800Z,81.88
2022-10-06T03:19:09.830Z,81.87
2022-10-06T03:21:39.953Z,81.83
2022-10-06T03:24:07.560Z,81.72
2022-10-06T03:26:42.164Z,81.89
2022-10-06T03:29:11.952Z,81.70
2022-10-06T03:31:43.535Z,81.79
2022-10-06T03:34:13.621Z,81.80
2022-10-06T03:36:41.214Z,81.52
2022-10-06T03:39:08.639Z,81.59
2022-10-06T03:41:38.030Z,81.64
2022-10-06T03:44:06.872Z,81.80
2022-10-06T03:46:37.441Z,81.51
2022-10-06T03:49:07.567Z,81.67
2022-10-06T03:51:38.824Z,81.49
2022-10-06T03:54:10.999Z,81.38
2022-10-06T03:56:41.328Z,81.42
2022-10-06T03:59:13.207Z,81.36
2022-10-06T04:01:45.739Z,81.38
2022-10-06T04:04:16.094Z,81.34
2022-10-06T04:06:45.230Z,81.35
2022-10-06T04:09:16.567Z,81.27
2022-10-06T04:11:45.536Z,81.01
2022-10-06T04:14:15.627Z,80.98
2022-10-06T04:16:48.211Z,81.19
2022-10-06T04:19:19.507Z,81.21
2022-10-06T04:21:50.510Z,80.92
2022-10-06T04:24:21.448Z,80.91
2022-10-06T04:26:50.370Z,80.86
2022-10-06T04:29:18.987Z,80.77
2022-10-06T04:31:50.730Z,80.73
2022-10-06T04:34:23.130Z,80.75
2022-10-06T04:36:50.350Z,80.68
2022-10-06T04:39:19.014Z,80.87
2022-10-06T04:41:47.546Z,80.70
2022-10-06T04:44:29.699Z,80.73
2022-10-06T04:47:01.359Z,80.41
2022-10-06T04:49:28.554Z,80.57
2022-10-06T04:51:57.351Z,80.44
2022-10-06T04:54:28.923Z,80.41
2022-10-06T04:56:59.792Z,80.19
2022-10-06T04:59:46.944Z,80.25
2022-10-06T05:02:16.767Z,80.47
2022-10-06T05:04:45.191Z,80.21
2022-10-06T05:07:13.831Z,80.44
2022-10-06T05:09:41.612Z,80.37
2022-10-06T05:12:10.953Z,80.06
2022-10-06T05:14:38.576Z,79.95
2022-10-06T05:17:06.073Z,80.01
2022-10-06T05:19:34.831Z,80.21
2022-10-06T05:22:02.438Z,80.01
2022-10-06T05:24:31.839Z,80.23
2022-10-06T05:27:02.195Z,79.81
2022-10-06T05:29:30.037Z,80.02
2022-10-06T05:31:57.648Z,80.15
2022-10-06T05:34:26.923Z,80.07
2022-10-06T05:36:54.077Z,79.86
2022-10-06T05:39:21.193Z,79.88
2022-10-06T05:41:55.716Z,79.49
2022-10-06T05:44:23.551Z,79.58
2022-10-06T05:46:50.712Z,79.56
2022-10-06T05:49:18.920Z,79.48
2022-10-06T05:51:55.094Z,79.67
2022-10-06T05:54:31.468Z,79.59
2022-10-06T05:56:58.511Z,79.30
2022-10-06T05:59:25.601Z,79.27
2022-10-06T06:01:55.093Z,79.12
2022-10-06T06:04:32.254Z,78.83
2022-10-06T06:07:00.381Z,78.93
2022-10-06T06:09:28.995Z,78.83
2022-10-06T06:12:00.918Z,78.52
2022-10-06T06:14:53.648Z,78.37
2022-10-06T06:17:24.233Z,78.18
2022-10-06T06:19:51.381Z,78.44
2022-10-06T06:22:18.354Z,78.34
2022-10-06T06:24:48.491Z,78.01
2022-10-06T06:27:15.703Z,78.06
2022-10-06T06:29:42.704Z,78.16
2022-10-06T06:32:09.781Z,77.82
2022-10-06T06:34:37.438Z,77.82
2022-10-06T06:37:09.415Z,78.12
2022-10-06T06:39:39.396Z,77.96
2022-10-06T06:42:08.619Z,77.58
2022-10-06T06:44:55.858Z,77.41
2022-10-06T06:47:43.072Z,77.68
2022-10-06T06:50:10.447Z,77.62
2022-10-06T06:52:42.002Z,77.18
2022-10-06T06:55:12.061Z,77.41
2022-10-06T06:57:39.229Z,76.98
2022-10-06T07:00:08.045Z,77.25
2022-10-06T07:02:37.453Z,77.20
2022-10-06T07:05:05.473Z,77.30
2022-10-06T07:07:32.554Z,76.80
2022-10-06T07:10:00.900Z,76.92
2022-10-06T07:12:31.261Z,76.93
2022-10-06T07:15:18.261Z,76.82
2022-10-06T07:18:08.399Z,76.78
2022-10-06T07:20:56.260Z,76.48
2022-10-06T07:23:42.420Z,76.39
2022-10-06T07:26:16.833Z,76.10
2022-10-06T07:28:44.912Z,76.10
2022-10-06T07:31:14.282Z,76.11
2022-10-06T07:33:42.014Z,75.91
2022-10-06T07:36:11.258Z,76.06
2022-10-06T07:38:41.645Z,76.08
2022-10-06T07:41:24.403Z,75.88
2022-10-06T07:43:57.879Z,75.69
2022-10-06T07:46:27.863Z,75.41
2022-10-06T07:49:03.165Z,75.37
2022-10-06T07:51:30.761Z,74.96
2022-10-06T07:53:58.851Z,74.40
2022-10-06T07:56:49.052Z,74.01
2022-10-06T07:59:16.041Z,73.48
2022-10-06T08:01:44.482Z,73.13
2022-10-06T08:04:12.890Z,72.75
2022-10-06T08:06:41.034Z,72.50
2022-10-06T08:09:08.365Z,71.99
2022-10-06T08:11:35.562Z,71.70
2022-10-06T08:14:02.629Z,71.30
2022-10-06T08:16:30.512Z,70.96
2022-10-06T08:18:59.462Z,70.63
2022-10-06T08:21:29.255Z,70.27
2022-10-06T08:23:57.851Z,69.93
2022-10-06T08:26:26.690Z,69.65
2022-10-06T08:28:57.738Z,69.33
2022-10-06T08:31:24.869Z,69.10
2022-10-06T08:33:56.852Z,68.78
2022-10-06T08:36:31.004Z,68.48
2022-10-06T08:38:58.386Z,68.32
2022-10-06T08:41:26.914Z,68.11
2022-10-06T08:44:07.810Z,67.89
2022-10-06T08:46:39.812Z,67.48
2022-10-06T08:49:08.692Z,67.32
2022-10-06T08:51:53.825Z,67.00
2022-10-06T08:54:30.181Z,66.68
2022-10-06T08:57:21.614Z,66.49
2022-10-06T08:59:53.034Z,66.29
2022-10-06T09:02:29.788Z,66.20
2022-10-06T09:05:00.764Z,65.80
2022-10-06T09:07:36.382Z,65.67
2022-10-06T09:10:24.754Z,65.32
2022-10-06T09:13:05.498Z,65.14
2022-10-06T09:15:49.988Z,64.85
2022-10-06T09:18:49.306Z,64.70
2022-10-06T09:21:31.713Z,64.38
2022-10-06T09:24:03.972Z,64.12
2022-10-06T09:26:32.326Z,63.91
2022-10-06T09:28:59.842Z,63.61
2022-10-06T09:31:32.394Z,63.41
2022-10-06T09:34:07.262Z,63.43
2022-10-06T09:37:02.171Z,62.85
2022-10-06T09:39:36.970Z,62.66
2022-10-06T09:42:11.830Z,62.42
2022-10-06T09:44:58.854Z,62.13
2022-10-06T09:47:39.379Z,61.93
2022-10-06T09:50:20.240Z,61.68
2022-10-06T09:53:05.593Z,61.60
2022-10-06T09:55:38.273Z,61.37
2022-10-06T09:58:32.851Z,61.30
2022-10-06T10:01:11.453Z,61.01
2022-10-06T10:06:38.460Z,60.66
2022-10-06T10:09:23.837Z,60.45
2022-10-06T10:12:19.982Z,60.25
2022-10-06T10:14:47.555Z,60.14
2022-10-06T10:17:20.605Z,60.12
2022-10-06T10:19:54.692Z,60.06
2022-10-06T10:22:41.231Z,59.98
2022-10-06T10:25:14.044Z,60.07
2022-10-06T10:28:15.851Z,59.86
2022-10-06T10:31:21.409Z,59.29
2022-10-06T10:34:25.628Z,59.10
2022-10-06T10:36:57.492Z,58.78
2022-10-06T10:39:37.975Z,58.65
2022-10-06T10:42:11.293Z,58.43
2022-10-06T10:44:44.636Z,58.30
2022-10-06T10:47:35.088Z,58.06
2022-10-06T10:50:32.509Z,57.97
2022-10-06T10:53:21.389Z,57.82
2022-10-06T10:55:49.090Z,57.62
2022-10-06T10:58:19.138Z,57.60
2022-10-06T11:00:49.238Z,57.83
2022-10-06T11:03:16.393Z,57.54
2022-10-06T11:05:59.053Z,57.41
2022-10-06T11:08:34.234Z,57.38
2022-10-06T11:11:03.839Z,57.46
2022-10-06T11:13:39.719Z,57.07
2022-10-06T11:16:16.394Z,56.79
2022-10-06T11:19:21.076Z,56.77
2022-10-06T11:22:10.272Z,56.60
2022-10-06T11:24:40.320Z,56.54
2022-10-06T11:27:28.830Z,56.46
2022-10-06T11:30:19.595Z,56.34
2022-10-06T11:33:07.211Z,56.01
2022-10-06T11:35:36.793Z,55.67
2022-10-06T11:38:18.541Z,55.56
2022-10-06T11:41:09.905Z,55.50
2022-10-06T11:44:18.975Z,55.37
2022-10-06T11:46:53.456Z,55.38
2022-10-06T11:49:29.366Z,55.21
2022-10-06T11:52:00.134Z,55.15
2022-10-06T11:54:36.169Z,55.29
2022-10-06T11:57:03.251Z,55.21
2022-10-06T11:59:31.661Z,55.34
2022-10-06T12:01:59.445Z,55.33
2022-10-06T12:04:26.661Z,55.50
2022-10-06T12:06:55.971Z,55.49
2022-10-06T12:09:31.198Z,55.32
2022-10-06T12:12:11.654Z,55.31
2022-10-06T12:18:00.911Z,55.40
2022-10-06T12:20:38.036Z,55.43
2022-10-06T12:23:13.914Z,55.67
2022-10-06T12:26:00.756Z,55.72
2022-10-06T12:29:05.232Z,55.69
2022-10-06T12:32:03.173Z,55.69
2022-10-06T12:34:55.744Z,55.54
2022-10-06T12:37:29.038Z,55.59
2022-10-06T12:40:33.277Z,55.66
2022-10-06T12:43:17.536Z,55.58
2022-10-06T12:45:48.929Z,55.53
2022-10-06T12:48:43.843Z,55.68
2022-10-06T12:54:22.570Z,55.36
2022-10-06T12:57:02.011Z,55.42
2022-10-06T12:59:35.001Z,55.21
2022-10-06T13:02:10.551Z,55.40
2022-10-06T13:04:41.330Z,55.10
2022-10-06T13:07:20.853Z,55.19
2022-10-06T13:09:50.761Z,55.08
2022-10-06T13:12:31.188Z,55.20
2022-10-06T13:15:25.205Z,55.06
2022-10-06T13:17:55.400Z,55.15
2022-10-06T13:20:48.802Z,55.20
2022-10-06T13:23:37.712Z,55.41
2022-10-06T13:26:06.970Z,55.43
2022-10-06T13:28:36.863Z,55.55
2022-10-06T13:31:26.982Z,55.45
2022-10-06T13:33:56.932Z,55.53
2022-10-06T13:36:24.842Z,55.76
2022-10-06T13:38:53.486Z,55.66
2022-10-06T13:41:36.179Z,55.81
2022-10-06T13:44:26.590Z,55.71
2022-10-06T13:46:55.399Z,55.94
2022-10-06T13:49:33.507Z,55.84
2022-10-06T13:52:15.766Z,55.96
2022-10-06T13:54:56.810Z,55.78
2022-10-06T13:57:48.028Z,55.89
2022-10-06T14:00:23.989Z,55.92
2022-10-06T14:02:55.362Z,55.90
2022-10-06T14:05:27.286Z,55.90
2022-10-06T14:07:55.168Z,56.05
2022-10-06T14:10:31.625Z,56.10
2022-10-06T14:13:00.881Z,56.05
2022-10-06T14:15:31.555Z,55.98
2022-10-06T14:18:01.076Z,56.29
2022-10-06T14:20:38.952Z,56.46
2022-10-06T14:23:42.942Z,56.35
2022-10-06T14:26:13.006Z,56.52
2022-10-06T14:28:48.442Z,56.31
2022-10-06T14:31:15.928Z,56.73
2022-10-06T14:33:43.181Z,56.58
2022-10-06T14:36:16.911Z,56.15
2022-10-06T14:38:47.051Z,56.14
2022-10-06T14:41:18.907Z,56.15
2022-10-06T14:43:47.860Z,56.01
2022-10-06T14:46:15.680Z,55.85
2022-10-06T14:48:42.813Z,55.42
2022-10-06T14:51:10.396Z,55.62
2022-10-06T14:53:39.519Z,55.82
2022-10-06T14:56:09.191Z,55.69
2022-10-06T14:58:38.031Z,55.68
2022-10-06T15:01:07.591Z,55.66
2022-10-06T15:03:35.914Z,55.62
2022-10-06T15:06:28.951Z,55.92
2022-10-06T15:08:58.307Z,55.88
2022-10-06T15:11:27.791Z,56.15
2022-10-06T15:13:57.335Z,56.23
2022-10-06T15:16:25.775Z,56.36
2022-10-06T15:18:53.467Z,56.26
2022-10-06T15:21:21.322Z,56.51
2022-10-06T15:23:49.179Z,56.63
2022-10-06T15:26:34.629Z,56.73
2022-10-06T15:29:01.921Z,56.57
2022-10-06T15:31:34.759Z,56.87
2022-10-06T15:34:04.216Z,56.82
2022-10-06T15:36:36.440Z,56.95
2022-10-06T15:39:07.831Z,56.95
2022-10-06T15:41:39.823Z,57.29
2022-10-06T15:44:08.717Z,56.96
2022-10-06T15:46:41.239Z,57.32
2022-10-06T15:49:12.690Z,57.58
2022-10-06T15:51:47.499Z,57.70
2022-10-06T15:54:19.695Z,57.71
2022-10-06T15:56:48.589Z,57.49
2022-10-06T15:59:16.494Z,57.81
2022-10-06T16:01:47.464Z,57.71
2022-10-06T16:04:25.959Z,57.82
2022-10-06T16:06:56.669Z,57.85
2022-10-06T16:09:31.539Z,57.87
2022-10-06T16:11:59.663Z,58.20
2022-10-06T16:14:26.738Z,58.20
2022-10-06T16:16:54.308Z,58.16
2022-10-06T16:19:21.500Z,58.51
2022-10-06T16:21:49.346Z,58.46
2022-10-06T16:24:20.190Z,58.35
2022-10-06T16:26:48.206Z,58.48
2022-10-06T16:29:19.992Z,58.68
2022-10-06T16:31:47.370Z,58.71
2022-10-06T16:34:15.019Z,58.96
2022-10-06T16:36:42.897Z,59.20
2022-10-06T16:39:14.309Z,59.04
2022-10-06T16:41:41.803Z,59.34
2022-10-06T16:44:09.398Z,59.34
2022-10-06T16:46:36.630Z,59.30
2022-10-06T16:49:04.612Z,59.58
2022-10-06T16:51:33.976Z,59.41
2022-10-06T16:54:06.581Z,59.53
2022-10-06T16:56:44.500Z,59.73
2022-10-06T16:59:19.015Z,60.06
2022-10-06T17:01:47.030Z,60.15
2022-10-06T17:04:16.450Z,60.27
2022-10-06T17:06:52.285Z,60.28
2022-10-06T17:09:21.909Z,60.29
2022-10-06T17:11:51.506Z,60.22
2022-10-06T17:14:19.745Z,60.67
2022-10-06T17:16:48.508Z,60.96
2022-10-06T17:19:16.864Z,60.99
2022-10-06T17:21:46.657Z,60.99
2022-10-06T17:24:15.237Z,61.20
2022-10-06T17:26:43.572Z,61.29
2022-10-06T17:29:18.244Z,61.50
2022-10-06T17:31:46.405Z,61.52
2022-10-06T17:34:21.214Z,61.60
2022-10-06T17:36:51.864Z,61.74
2022-10-06T17:39:21.948Z,61.87
2022-10-06T17:41:52.062Z,61.94
2022-10-06T17:44:24.118Z,62.12
2022-10-06T17:46:57.042Z,62.46
2022-10-06T17:49:25.397Z,62.26
2022-10-06T17:51:54.895Z,62.55
2022-10-06T17:54:25.152Z,62.75
2022-10-06T17:56:55.045Z,62.76
2022-10-06T17:59:24.760Z,62.99
2022-10-06T18:01:53.966Z,62.92
2022-10-06T18:04:21.320Z,63.35
2022-10-06T18:06:48.784Z,63.45
2022-10-06T18:09:16.528Z,63.48
2022-10-06T18:11:47.908Z,63.68
2022-10-06T18:14:17.402Z,63.85
2022-10-06T18:16:48.248Z,63.84
2022-10-06T18:19:20.839Z,63.94
2022-10-06T18:21:48.132Z,64.24
2022-10-06T18:24:17.627Z,64.26
2022-10-06T18:26:48.318Z,64.20
2022-10-06T18:29:17.291Z,64.44
2022-10-06T18:31:44.957Z,64.86
2022-10-06T18:37:00.018Z,64.85
2022-10-06T18:39:31.200Z,64.94
2022-10-06T18:42:02.475Z,65.41
2022-10-06T18:44:48.966Z,65.53
2022-10-06T18:47:34.837Z,65.24
2022-10-06T18:50:01.899Z,66.03
2022-10-06T18:52:28.951Z,66.11
2022-10-06T18:54:55.981Z,66.01
2022-10-06T18:57:27.719Z,66.55
2022-10-06T18:59:55.400Z,66.30
2022-10-06T19:02:22.757Z,66.41
2022-10-06T19:04:49.945Z,66.66
2022-10-06T19:07:16.960Z,66.89
2022-10-06T19:09:46.898Z,67.17
2022-10-06T19:12:14.565Z,67.00
2022-10-06T19:14:48.815Z,67.40
2022-10-06T19:17:16.668Z,67.54
2022-10-06T19:19:51.771Z,67.54
2022-10-06T19:22:24.915Z,67.92
2022-10-06T19:24:52.767Z,67.69
2022-10-06T19:27:25.128Z,67.81
2022-10-06T19:29:54.586Z,67.75
2022-10-06T19:32:25.160Z,67.86
2022-10-06T19:34:53.032Z,67.98
2022-10-06T19:37:20.219Z,68.41
2022-10-06T19:39:50.449Z,68.17
2022-10-06T19:42:38.217Z,68.87
2022-10-06T19:45:08.035Z,69.01
2022-10-06T19:47:36.170Z,68.80
2022-10-06T19:50:10.351Z,68.47
2022-10-06T19:52:39.158Z,68.64
2022-10-06T19:55:06.678Z,69.00
2022-10-06T19:57:33.809Z,68.73
2022-10-06T20:00:01.131Z,68.85
2022-10-06T20:02:29.217Z,69.26
2022-10-06T20:04:57.108Z,69.31
2022-10-06T20:07:27.881Z,69.40
2022-10-06T20:09:55.645Z,69.54
2022-10-06T20:12:25.191Z,69.65
2022-10-06T20:14:53.902Z,69.79
2022-10-06T20:17:21.783Z,69.80
2022-10-06T20:19:48.743Z,69.81
2022-10-06T20:22:15.924Z,69.56
2022-10-06T20:24:43.765Z,69.87
2022-10-06T20:27:11.107Z,69.96
2022-10-06T20:29:38.247Z,70.38
2022-10-06T20:32:05.491Z,70.13
2022-10-06T20:34:33.037Z,70.22
2022-10-06T20:37:04.918Z,70.02
2022-10-06T20:39:51.899Z,70.49
2022-10-06T20:42:20.229Z,70.23
2022-10-06T20:44:47.422Z,70.18
2022-10-06T20:47:16.705Z,70.71
2022-10-06T20:49:44.003Z,70.28
2022-10-06T20:52:14.447Z,70.28
2022-10-06T20:54:41.710Z,70.66
2022-10-06T20:57:09.819Z,70.45
2022-10-06T20:59:37.743Z,70.59
2022-10-06T21:02:06.095Z,70.59
2022-10-06T21:04:34.974Z,70.53
2022-10-06T21:07:06.071Z,70.73
2022-10-06T21:09:33.402Z,70.83
2022-10-06T21:12:00.757Z,71.04
2022-10-06T21:14:27.829Z,70.89
2022-10-06T21:16:54.870Z,70.86
2022-10-06T21:19:22.008Z,71.38
2022-10-06T21:21:53.605Z,71.25
2022-10-06T21:24:21.159Z,71.11
2022-10-06T21:26:48.862Z,71.23
2022-10-06T21:29:16.466Z,71.49
2022-10-06T21:31:44.732Z,71.46
2022-10-06T21:34:12.268Z,71.47
2022-10-06T21:36:39.389Z,71.52
2022-10-06T21:39:06.981Z,71.44
2022-10-06T21:41:39.359Z,71.47
2022-10-06T21:44:14.427Z,71.78
2022-10-06T21:46:52.557Z,71.75
2022-10-06T21:49:24.304Z,71.83
2022-10-06T21:51:53.697Z,71.47
2022-10-06T21:54:21.978Z,71.84
2022-10-06T21:56:49.167Z,71.52
2022-10-06T21:59:16.158Z,72.28
2022-10-06T22:01:45.044Z,72.03
2022-10-06T22:04:14.227Z,72.23
2022-10-06T22:06:42.117Z,72.31
2022-10-06T22:09:11.993Z,71.71
2022-10-06T22:11:40.285Z,72.02
2022-10-06T22:14:10.560Z,72.34
2022-10-06T22:16:38.531Z,72.37
2022-10-06T22:19:09.096Z,72.55
2022-10-06T22:21:47.000Z,72.20
2022-10-06T22:24:20.359Z,72.15
2022-10-06T22:26:48.410Z,72.51
2022-10-06T22:29:17.206Z,72.37
2022-10-06T22:31:46.256Z,72.83
2022-10-06T22:34:15.558Z,72.68
2022-10-06T22:36:43.051Z,72.58
2022-10-06T22:39:10.546Z,72.54
2022-10-06T22:41:38.259Z,72.55
2022-10-06T22:44:05.248Z,73.12
2022-10-06T22:46:34.153Z,72.97
2022-10-06T22:49:01.878Z,73.03
2022-10-06T22:51:28.968Z,73.40
2022-10-06T22:53:58.752Z,73.11
2022-10-06T22:56:31.915Z,72.48
2022-10-06T22:59:00.142Z,73.07
2022-10-06T23:01:28.399Z,73.41
2022-10-06T23:03:55.977Z,73.05
2022-10-06T23:06:23.378Z,73.10
2022-10-06T23:08:50.498Z,72.97
2022-10-06T23:11:19.519Z,72.92
2022-10-06T23:13:46.747Z,73.18
2022-10-06T23:16:15.518Z,73.34
2022-10-06T23:18:44.084Z,73.13
2022-10-06T23:21:19.411Z,73.23
2022-10-06T23:23:47.710Z,73.47
2022-10-06T23:26:16.502Z,73.25
2022-10-06T23:28:43.707Z,73.50
2022-10-06T23:31:11.062Z,73.94
2022-10-06T23:33:38.410Z,73.78
2022-10-06T23:36:08.387Z,73.92
2022-10-06T23:38:36.100Z,73.80
2022-10-06T23:41:03.699Z,73.66
2022-10-06T23:43:30.880Z,73.95
2022-10-06T23:45:57.879Z,73.72
2022-10-06T23:48:24.975Z,74.18
2022-10-06T23:50:57.006Z,74.17
2022-10-06T23:53:24.066Z,73.86
2022-10-06T23:55:50.999Z,74.10
2022-10-06T23:58:18.943Z,74.22
